createdAt,value
2018-05-15T00:00:57.446Z,972.92
2018-05-15T00:01:57.432Z,972.92
2018-05-15T00:03:11.682Z,972.95
2018-05-15T00:03:57.434Z,972.93
2018-05-15T00:04:57.436Z,972.94
2018-05-15T00:05:57.534Z,972.91
2018-05-15T00:06:57.437Z,972.92
2018-05-15T00:08:02.793Z,972.89
2018-05-15T00:08:57.436Z,972.93
2018-05-15T00:09:57.426Z,972.92
2018-05-15T00:10:57.459Z,972.94
2018-05-15T00:11:57.434Z,972.96
2018-05-15T00:12:57.431Z,972.93
2018-05-15T00:13:57.591Z,972.93
2018-05-15T00:14:57.449Z,972.92
2018-05-15T00:15:57.435Z,972.91
2018-05-15T00:16:57.435Z,972.91
2018-05-15T00:17:57.432Z,972.92
2018-05-15T00:18:57.429Z,972.94
2018-05-15T00:19:57.471Z,972.92
2018-05-15T00:20:57.423Z,972.93
2018-05-15T00:21:57.445Z,972.88
2018-05-15T00:22:57.432Z,972.88
2018-05-15T00:23:57.432Z,972.90
2018-05-15T00:24:57.468Z,972.88
2018-05-15T00:25:57.428Z,972.88
2018-05-15T00:26:57.424Z,972.90
2018-05-15T00:27:57.425Z,972.93
2018-05-15T00:28:57.421Z,972.88
2018-05-15T00:29:57.477Z,972.92
2018-05-15T00:30:57.421Z,972.89
2018-05-15T00:31:57.432Z,972.93
2018-05-15T00:32:57.425Z,972.85
2018-05-15T00:33:57.426Z,972.90
2018-05-15T00:34:57.482Z,972.89
2018-05-15T00:35:57.421Z,972.90
2018-05-15T00:36:57.422Z,972.88
2018-05-15T00:37:57.422Z,972.88
2018-05-15T00:38:57.642Z,972.87
2018-05-15T00:39:57.464Z,972.83
2018-05-15T00:40:57.423Z,972.83
2018-05-15T00:41:57.415Z,972.86
2018-05-15T00:42:57.414Z,972.88
2018-05-15T00:43:57.415Z,972.86
2018-05-15T00:44:59.341Z,972.88
2018-05-15T00:45:57.419Z,972.86
2018-05-15T00:46:57.411Z,972.88
2018-05-15T00:47:57.415Z,972.88
2018-05-15T00:48:57.422Z,972.87
2018-05-15T00:49:57.415Z,972.86
2018-05-15T00:51:05.191Z,972.89
2018-05-15T00:51:57.408Z,972.91
2018-05-15T00:52:57.409Z,972.89
2018-05-15T00:53:58.292Z,972.88
2018-05-15T00:54:57.412Z,972.88
2018-05-15T00:55:57.455Z,972.88
2018-05-15T00:56:57.401Z,972.85
2018-05-15T00:57:57.404Z,972.84
2018-05-15T00:58:57.471Z,972.86
2018-05-15T00:59:57.400Z,972.87
2018-05-15T01:00:57.785Z,972.83
2018-05-15T01:01:57.405Z,972.86
2018-05-15T01:02:57.396Z,972.85
2018-05-15T01:03:57.404Z,972.91
2018-05-15T01:04:57.400Z,972.86
2018-05-15T01:05:57.417Z,972.86
2018-05-15T01:07:08.182Z,972.86
2018-05-15T01:07:58.334Z,972.87
2018-05-15T01:08:57.402Z,972.92
2018-05-15T01:09:57.417Z,972.94
2018-05-15T01:10:57.435Z,972.92
2018-05-15T01:11:57.391Z,972.95
2018-05-15T01:12:57.386Z,972.99
2018-05-15T01:13:57.386Z,972.95
2018-05-15T01:14:57.394Z,972.98
2018-05-15T01:15:57.422Z,972.96
2018-05-15T01:16:57.383Z,973.02
2018-05-15T01:17:57.384Z,972.99
2018-05-15T01:18:57.391Z,973.01
2018-05-15T01:19:57.412Z,973.01
2018-05-15T01:22:29.017Z,973.02
2018-05-15T01:23:28.977Z,973.04
2018-05-15T01:24:28.969Z,973.03
2018-05-15T01:25:34.136Z,973.05
2018-05-15T01:26:28.972Z,973.06
2018-05-15T01:27:28.982Z,973.03
2018-05-15T01:28:28.968Z,973.12
2018-05-15T01:29:28.964Z,973.11
2018-05-15T01:30:28.973Z,973.14
2018-05-15T01:31:29.436Z,973.13
2018-05-15T01:32:28.968Z,973.12
2018-05-15T01:33:28.969Z,973.15
2018-05-15T01:34:28.958Z,973.14
2018-05-15T01:35:29.107Z,973.16
2018-05-15T01:36:28.966Z,973.15
2018-05-15T01:37:28.968Z,973.13
2018-05-15T01:38:28.976Z,973.13
2018-05-15T01:39:28.966Z,973.13
2018-05-15T01:40:28.973Z,973.15
2018-05-15T01:41:30.638Z,973.12
2018-05-15T01:42:29.024Z,973.09
2018-05-15T01:43:28.950Z,973.10
2018-05-15T01:44:28.952Z,973.13
2018-05-15T01:45:29.147Z,973.10
2018-05-15T01:46:28.949Z,973.08
2018-05-15T01:47:28.945Z,973.10
2018-05-15T01:48:28.944Z,973.10
2018-05-15T01:49:28.952Z,973.06
2018-05-15T01:50:28.944Z,973.09
2018-05-15T01:51:29.028Z,973.03
2018-05-15T01:52:28.941Z,973.06
2018-05-15T01:53:28.944Z,973.09
2018-05-15T01:54:28.941Z,973.09
2018-05-15T01:55:28.959Z,973.14
2018-05-15T01:56:50.768Z,973.09
2018-05-15T01:57:28.936Z,973.08
2018-05-15T01:58:28.934Z,973.06
2018-05-15T01:59:28.933Z,973.05
2018-05-15T02:02:00.612Z,973.05
2018-05-15T02:03:00.608Z,973.05
2018-05-15T02:04:00.602Z,973.04
2018-05-15T02:05:00.599Z,973.06
2018-05-15T02:06:02.194Z,973.03
2018-05-15T02:07:00.599Z,973.01
2018-05-15T02:08:00.594Z,973.02
2018-05-15T02:09:00.599Z,973.00
2018-05-15T02:10:00.593Z,973.02
2018-05-15T02:12:53.240Z,972.98
2018-05-15T02:13:32.199Z,973.00
2018-05-15T02:14:32.199Z,973.02
2018-05-15T02:15:32.202Z,973.02
2018-05-15T02:16:50.347Z,973.04
2018-05-15T02:17:32.196Z,973.06
2018-05-15T02:18:32.192Z,973.02
2018-05-15T02:19:32.192Z,973.01
2018-05-15T02:20:32.193Z,973.02
2018-05-15T02:23:03.852Z,973.02
2018-05-15T02:24:04.196Z,973.00
2018-05-15T02:25:03.809Z,972.95
2018-05-15T02:26:04.445Z,972.98
2018-05-15T02:27:03.805Z,972.99
2018-05-15T02:28:03.805Z,973.00
2018-05-15T02:29:03.802Z,973.00
2018-05-15T02:30:03.802Z,973.03
2018-05-15T02:31:25.439Z,972.99
2018-05-15T02:32:03.796Z,973.03
2018-05-15T02:33:03.818Z,973.03
2018-05-15T02:34:03.799Z,973.02
2018-05-15T02:35:03.799Z,973.01
2018-05-15T02:36:03.943Z,973.05
2018-05-15T02:37:03.796Z,973.02
2018-05-15T02:38:03.792Z,973.00
2018-05-15T02:39:04.516Z,973.03
2018-05-15T02:40:03.789Z,973.01
2018-05-15T02:41:04.439Z,973.03
2018-05-15T02:42:03.789Z,973.03
2018-05-15T02:43:04.268Z,973.03
2018-05-15T02:44:03.856Z,973.03
2018-05-15T02:45:03.780Z,973.02
2018-05-15T02:49:07.109Z,973.02
2018-05-15T02:50:07.064Z,973.03
2018-05-15T02:51:21.178Z,973.01
2018-05-15T02:52:07.060Z,973.04
2018-05-15T02:53:07.058Z,973.03
2018-05-15T02:54:07.059Z,972.99
2018-05-15T02:55:07.062Z,972.98
2018-05-15T02:56:08.509Z,972.96
2018-05-15T02:57:07.056Z,972.94
2018-05-15T02:58:07.049Z,972.93
2018-05-15T02:59:07.069Z,972.94
2018-05-15T03:00:07.050Z,972.95
2018-05-15T03:02:44.302Z,972.97
2018-05-15T03:03:38.694Z,973.00
2018-05-15T03:04:38.692Z,973.00
2018-05-15T03:05:52.799Z,973.02
2018-05-15T03:06:39.347Z,973.04
2018-05-15T03:07:38.681Z,972.99
2018-05-15T03:08:38.687Z,972.99
2018-05-15T03:09:38.682Z,973.03
2018-05-15T03:10:38.700Z,973.01
2018-05-15T03:12:00.599Z,972.99
2018-05-15T03:12:38.675Z,972.99
2018-05-15T03:13:38.678Z,973.04
2018-05-15T03:14:38.682Z,973.05
2018-05-15T03:15:38.674Z,973.05
2018-05-15T03:17:13.799Z,973.08
2018-05-15T03:17:38.674Z,973.05
2018-05-15T03:18:39.576Z,973.09
2018-05-15T03:19:38.671Z,973.01
2018-05-15T03:20:38.664Z,973.02
2018-05-15T03:21:38.678Z,973.04
2018-05-15T03:22:46.476Z,973.02
2018-05-15T03:23:38.661Z,973.01
2018-05-15T03:24:38.766Z,973.04
2018-05-15T03:25:38.654Z,973.00
2018-05-15T03:26:38.812Z,973.02
2018-05-15T03:27:38.652Z,973.00
2018-05-15T03:28:38.651Z,973.03
2018-05-15T03:29:39.597Z,973.05
2018-05-15T03:30:38.645Z,973.08
2018-05-15T03:31:38.653Z,973.07
2018-05-15T03:32:38.683Z,973.03
2018-05-15T03:33:38.646Z,973.04
2018-05-15T03:34:38.641Z,973.07
2018-05-15T03:35:38.637Z,973.14
2018-05-15T03:36:38.634Z,973.09
2018-05-15T03:38:13.799Z,973.09
2018-05-15T03:38:38.659Z,973.11
2018-05-15T03:39:38.633Z,973.09
2018-05-15T03:40:38.630Z,973.13
2018-05-15T03:41:38.634Z,973.12
2018-05-15T03:42:38.673Z,973.14
2018-05-15T03:43:38.787Z,973.12
2018-05-15T03:44:38.623Z,973.17
2018-05-15T03:45:38.620Z,973.19
2018-05-15T03:46:38.623Z,973.20
2018-05-15T03:47:41.802Z,973.17
2018-05-15T03:48:38.672Z,973.20
2018-05-15T03:49:38.613Z,973.18
2018-05-15T03:50:38.615Z,973.17
2018-05-15T03:51:38.623Z,973.18
2018-05-15T03:52:38.775Z,973.19
2018-05-15T03:53:38.607Z,973.21
2018-05-15T03:54:38.611Z,973.20
2018-05-15T03:55:38.611Z,973.21
2018-05-15T03:56:38.602Z,973.22
2018-05-15T03:57:38.604Z,973.19
2018-05-15T03:58:38.658Z,973.21
2018-05-15T03:59:38.597Z,973.22
2018-05-15T04:00:38.596Z,973.26
2018-05-15T04:01:38.595Z,973.24
2018-05-15T04:02:41.799Z,973.27
2018-05-15T04:03:38.596Z,973.30
2018-05-15T04:04:38.592Z,973.29
2018-05-15T04:05:38.605Z,973.34
2018-05-15T04:06:38.984Z,973.33
2018-05-15T04:07:38.633Z,973.37
2018-05-15T04:08:38.637Z,973.38
2018-05-15T04:09:38.581Z,973.41
2018-05-15T04:10:38.583Z,973.38
2018-05-15T04:11:38.580Z,973.39
2018-05-15T04:19:09.380Z,973.56
2018-05-15T04:19:45.272Z,973.56
2018-05-15T04:20:45.270Z,973.60
2018-05-15T04:21:45.289Z,973.57
2018-05-15T04:23:24.379Z,973.59
2018-05-15T04:23:45.258Z,973.63
2018-05-15T04:24:45.269Z,973.62
2018-05-15T04:25:45.262Z,973.60
2018-05-15T04:26:45.268Z,973.62
2018-05-15T04:27:45.260Z,973.63
2018-05-15T04:31:51.749Z,973.69
2018-05-15T04:32:48.643Z,973.72
2018-05-15T04:41:56.297Z,973.69
2018-05-15T04:42:30.421Z,973.69
2018-05-15T04:43:32.836Z,973.68
2018-05-15T04:47:32.437Z,973.73
2018-05-15T04:48:32.757Z,973.76
2018-05-15T04:49:55.786Z,973.76
2018-05-15T04:50:30.850Z,973.83
2018-05-15T04:51:30.968Z,973.81
2018-05-15T04:52:31.945Z,973.84
2018-05-15T04:53:31.853Z,973.88
2018-05-15T04:54:31.023Z,973.91
2018-05-15T04:55:31.924Z,973.92
2018-05-15T04:56:31.426Z,973.92
2018-05-15T04:57:30.976Z,973.95
2018-05-15T04:58:30.984Z,973.94
2018-05-15T04:59:30.851Z,973.90
2018-05-15T05:00:30.901Z,973.89
2018-05-15T05:01:32.068Z,973.91
2018-05-15T05:02:30.850Z,973.92
2018-05-15T05:03:32.136Z,973.91
2018-05-15T05:04:44.987Z,973.95
2018-05-15T05:05:30.850Z,973.95
2018-05-15T05:06:30.849Z,973.99
2018-05-15T05:07:30.872Z,973.94
2018-05-15T05:08:32.989Z,973.93
2018-05-15T05:11:04.188Z,973.94
2018-05-15T05:12:02.561Z,973.96
2018-05-15T05:13:04.908Z,973.98
2018-05-15T05:14:02.447Z,973.96
2018-05-15T05:15:13.154Z,973.98
2018-05-15T05:16:04.188Z,973.98
2018-05-15T05:17:04.279Z,974.02
2018-05-15T05:18:03.576Z,974.07
2018-05-15T05:19:02.636Z,974.03
2018-05-15T05:20:02.563Z,974.02
2018-05-15T05:21:04.179Z,974.00
2018-05-15T05:22:05.165Z,974.01
2018-05-15T05:23:02.552Z,973.99
2018-05-15T05:24:03.665Z,974.02
2018-05-15T05:25:03.254Z,973.99
2018-05-15T05:26:02.589Z,974.04
2018-05-15T05:27:02.485Z,974.02
2018-05-15T05:28:02.469Z,974.08
2018-05-15T05:29:03.017Z,974.09
2018-05-15T05:30:02.473Z,974.08
2018-05-15T05:31:25.199Z,974.13
2018-05-15T05:32:02.465Z,974.09
2018-05-15T05:33:02.467Z,974.10
2018-05-15T05:34:02.473Z,974.13
2018-05-15T05:35:02.472Z,974.08
2018-05-15T05:36:20.615Z,974.13
2018-05-15T05:37:02.477Z,974.10
2018-05-15T05:38:02.477Z,974.16
2018-05-15T05:39:02.479Z,974.15
2018-05-15T05:40:02.570Z,974.16
2018-05-15T05:41:02.610Z,974.14
2018-05-15T05:42:02.481Z,974.15
2018-05-15T05:43:02.502Z,974.20
2018-05-15T05:44:02.486Z,974.18
2018-05-15T05:45:02.491Z,974.16
2018-05-15T05:46:03.250Z,974.19
2018-05-15T05:47:02.548Z,974.17
2018-05-15T05:48:02.491Z,974.20
2018-05-15T05:49:02.503Z,974.17
2018-05-15T05:50:02.525Z,974.24
2018-05-15T05:51:02.499Z,974.21
2018-05-15T05:52:04.272Z,974.23
2018-05-15T05:53:02.506Z,974.24
2018-05-15T05:54:02.503Z,974.28
2018-05-15T05:55:02.508Z,974.31
2018-05-15T05:56:02.517Z,974.34
2018-05-15T05:57:05.947Z,974.35
2018-05-15T05:58:02.519Z,974.34
2018-05-15T05:59:02.520Z,974.35
2018-05-15T06:00:02.523Z,974.34
2018-05-15T06:01:02.527Z,974.29
2018-05-15T06:02:10.108Z,974.26
2018-05-15T06:03:03.060Z,974.31
2018-05-15T06:04:02.551Z,974.30
2018-05-15T06:05:02.533Z,974.30
2018-05-15T06:06:02.536Z,974.30
2018-05-15T06:07:02.582Z,974.31
2018-05-15T06:08:03.068Z,974.27
2018-05-15T06:09:02.549Z,974.32
2018-05-15T06:10:02.545Z,974.30
2018-05-15T06:11:02.552Z,974.29
2018-05-15T06:12:02.679Z,974.28
2018-05-15T06:13:02.557Z,974.18
2018-05-15T06:14:02.558Z,974.16
2018-05-15T06:15:02.561Z,974.22
2018-05-15T06:16:02.562Z,974.21
2018-05-15T06:17:02.572Z,974.28
2018-05-15T06:18:03.118Z,974.29
2018-05-15T06:19:02.571Z,974.30
2018-05-15T06:20:02.573Z,974.34
2018-05-15T06:21:02.639Z,974.36
2018-05-15T06:22:03.126Z,974.33
2018-05-15T06:23:02.583Z,974.34
2018-05-15T06:24:02.584Z,974.36
2018-05-15T06:25:02.590Z,974.32
2018-05-15T06:26:02.591Z,974.37
2018-05-15T06:27:02.593Z,974.30
2018-05-15T06:28:04.787Z,974.34
2018-05-15T06:29:02.605Z,974.37
2018-05-15T06:30:02.604Z,974.32
2018-05-15T06:31:02.608Z,974.34
2018-05-15T06:32:02.625Z,974.34
2018-05-15T06:33:17.309Z,974.30
2018-05-15T06:34:02.620Z,974.33
2018-05-15T06:35:02.632Z,974.30
2018-05-15T06:36:02.629Z,974.33
2018-05-15T06:37:02.638Z,974.36
2018-05-15T06:38:10.609Z,974.34
2018-05-15T06:39:02.650Z,974.24
2018-05-15T06:40:02.645Z,974.18
2018-05-15T06:41:02.649Z,974.24
2018-05-15T06:42:02.655Z,974.22
2018-05-15T06:43:02.838Z,974.24
2018-05-15T06:44:02.658Z,974.28
2018-05-15T06:45:02.664Z,974.25
2018-05-15T06:46:02.675Z,974.27
2018-05-15T06:47:02.671Z,974.27
2018-05-15T06:48:02.679Z,974.27
2018-05-15T06:49:04.616Z,974.34
2018-05-15T06:50:02.717Z,974.36
2018-05-15T06:51:02.689Z,974.33
2018-05-15T06:52:02.690Z,974.24
2018-05-15T06:53:02.789Z,974.23
2018-05-15T06:54:03.672Z,974.27
2018-05-15T06:55:02.701Z,974.21
2018-05-15T06:56:02.717Z,974.25
2018-05-15T06:57:02.710Z,974.28
2018-05-15T06:58:04.631Z,974.23
2018-05-15T06:59:02.722Z,974.24
2018-05-15T07:00:02.729Z,974.36
2018-05-15T07:01:02.729Z,974.16
2018-05-15T07:02:02.732Z,974.30
2018-05-15T07:03:02.780Z,974.20
2018-05-15T07:04:02.759Z,974.21
2018-05-15T07:05:02.745Z,974.20
2018-05-15T07:06:02.751Z,974.19
2018-05-15T07:07:02.757Z,974.30
2018-05-15T07:08:06.313Z,974.21
2018-05-15T07:09:02.767Z,974.21
2018-05-15T07:10:02.774Z,974.30
2018-05-15T07:11:02.780Z,974.30
2018-05-15T07:12:02.784Z,974.23
2018-05-15T07:14:34.515Z,974.07
2018-05-15T07:15:34.455Z,974.09
2018-05-15T07:16:34.459Z,974.08
2018-05-15T07:17:34.524Z,974.10
2018-05-15T07:18:34.462Z,974.17
2018-05-15T07:19:34.536Z,974.23
2018-05-15T07:20:34.475Z,974.26
2018-05-15T07:21:34.477Z,974.23
2018-05-15T07:22:37.543Z,974.28
2018-05-15T07:23:34.712Z,974.21
2018-05-15T07:24:34.496Z,974.26
2018-05-15T07:25:35.369Z,974.30
2018-05-15T07:26:34.525Z,974.21
2018-05-15T07:27:34.509Z,974.20
2018-05-15T07:28:35.060Z,974.18
2018-05-15T07:29:34.520Z,974.20
2018-05-15T07:30:34.533Z,974.21
2018-05-15T07:31:34.533Z,974.18
2018-05-15T07:32:34.538Z,974.21
2018-05-15T07:33:45.593Z,974.22
2018-05-15T07:34:35.208Z,974.24
2018-05-15T07:35:34.550Z,974.23
2018-05-15T07:36:34.558Z,974.19
2018-05-15T07:37:34.573Z,974.16
2018-05-15T07:38:49.036Z,974.18
2018-05-15T07:39:34.582Z,974.16
2018-05-15T07:40:34.582Z,974.18
2018-05-15T07:41:34.587Z,974.21
2018-05-15T07:42:34.596Z,974.18
2018-05-15T07:43:34.603Z,974.23
2018-05-15T07:44:49.301Z,974.20
2018-05-15T07:45:34.607Z,974.21
2018-05-15T07:46:34.621Z,974.23
2018-05-15T07:47:34.628Z,974.21
2018-05-15T07:48:45.555Z,974.21
2018-05-15T07:49:34.628Z,974.20
2018-05-15T07:50:34.636Z,974.24
2018-05-15T07:51:34.644Z,974.21
2018-05-15T07:52:34.643Z,974.23
2018-05-15T07:53:34.738Z,974.21
2018-05-15T07:54:40.119Z,974.22
2018-05-15T07:55:34.660Z,974.26
2018-05-15T07:56:34.669Z,974.24
2018-05-15T07:57:34.668Z,974.21
2018-05-15T07:58:34.673Z,974.25
2018-05-15T07:59:40.050Z,974.23
2018-05-15T08:00:34.684Z,974.29
2018-05-15T08:01:34.994Z,974.28
2018-05-15T08:02:34.704Z,974.30
2018-05-15T08:03:34.695Z,974.24
2018-05-15T08:04:34.750Z,974.22
2018-05-15T08:05:34.705Z,974.27
2018-05-15T08:06:34.710Z,974.24
2018-05-15T08:07:36.028Z,974.27
2018-05-15T08:08:34.732Z,974.30
2018-05-15T08:09:34.728Z,974.31
2018-05-15T08:10:34.771Z,974.32
2018-05-15T08:11:34.744Z,974.30
2018-05-15T08:12:34.744Z,974.33
2018-05-15T08:13:34.736Z,974.34
2018-05-15T08:14:34.754Z,974.33
2018-05-15T08:15:38.107Z,974.40
2018-05-15T08:16:34.750Z,974.36
2018-05-15T08:17:34.751Z,974.30
2018-05-15T08:18:34.757Z,974.33
2018-05-15T08:19:45.556Z,974.29
2018-05-15T08:20:34.770Z,974.28
2018-05-15T08:21:34.776Z,974.36
2018-05-15T08:22:35.220Z,974.33
2018-05-15T08:23:34.835Z,974.30
2018-05-15T08:24:34.794Z,974.32
2018-05-15T08:25:34.801Z,974.26
2018-05-15T08:26:34.810Z,974.27
2018-05-15T08:27:34.813Z,974.22
2018-05-15T08:31:46.140Z,974.15
2018-05-15T08:32:38.488Z,974.20
2018-05-15T08:35:47.242Z,974.18
2018-05-15T08:36:10.139Z,974.17
2018-05-15T08:37:10.144Z,974.17
2018-05-15T08:38:10.147Z,974.23
2018-05-15T08:39:31.765Z,974.21
2018-05-15T08:40:10.156Z,974.24
2018-05-15T08:41:10.162Z,974.26
2018-05-15T08:42:10.187Z,974.28
2018-05-15T08:43:10.180Z,974.32
2018-05-15T08:44:10.184Z,974.25
2018-05-15T08:45:10.316Z,974.24
2018-05-15T08:46:10.201Z,974.35
2018-05-15T08:47:10.196Z,974.29
2018-05-15T08:48:10.209Z,974.27
2018-05-15T08:49:10.212Z,974.24
2018-05-15T08:50:28.748Z,974.22
2018-05-15T08:51:10.228Z,974.24
2018-05-15T08:52:10.233Z,974.20
2018-05-15T08:53:10.256Z,974.24
2018-05-15T08:54:10.245Z,974.23
2018-05-15T08:55:15.760Z,974.26
2018-05-15T08:56:10.262Z,974.24
2018-05-15T08:57:10.267Z,974.24
2018-05-15T08:58:10.357Z,974.31
2018-05-15T08:59:10.343Z,974.31
2018-05-15T09:00:33.658Z,974.35
2018-05-15T09:01:10.374Z,974.36
2018-05-15T09:02:10.402Z,974.37
2018-05-15T09:03:10.447Z,974.41
2018-05-15T09:04:10.363Z,974.41
2018-05-15T09:05:12.258Z,974.44
2018-05-15T09:06:10.406Z,974.43
2018-05-15T09:07:10.364Z,974.39
2018-05-15T09:08:10.584Z,974.37
2018-05-15T09:09:10.465Z,974.41
2018-05-15T09:10:11.231Z,974.29
2018-05-15T09:11:10.878Z,974.31
2018-05-15T09:12:10.383Z,974.28
2018-05-15T09:13:10.391Z,974.25
2018-05-15T09:14:10.404Z,974.24
2018-05-15T09:15:10.495Z,974.22
2018-05-15T09:16:15.753Z,974.26
2018-05-15T09:17:10.572Z,974.19
2018-05-15T09:18:10.446Z,974.24
2018-05-15T09:19:10.454Z,974.21
2018-05-15T09:20:12.248Z,974.20
2018-05-15T09:21:10.472Z,974.19
2018-05-15T09:22:11.295Z,974.19
2018-05-15T09:23:10.474Z,974.23
2018-05-15T09:24:10.484Z,974.23
2018-05-15T09:25:42.256Z,974.24
2018-05-15T09:26:10.494Z,974.19
2018-05-15T09:27:10.921Z,974.22
2018-05-15T09:28:10.758Z,974.27
2018-05-15T09:29:10.605Z,974.26
2018-05-15T09:30:11.332Z,974.23
2018-05-15T09:31:10.534Z,974.29
2018-05-15T09:32:10.544Z,974.29
2018-05-15T09:33:10.525Z,974.30
2018-05-15T09:34:10.547Z,974.29
2018-05-15T09:35:11.261Z,974.27
2018-05-15T09:36:12.251Z,974.27
2018-05-15T09:37:10.669Z,974.28
2018-05-15T09:38:10.572Z,974.28
2018-05-15T09:39:10.580Z,974.28
2018-05-15T09:40:12.255Z,974.24
2018-05-15T09:41:11.016Z,974.30
2018-05-15T09:42:10.675Z,974.26
2018-05-15T09:43:10.613Z,974.33
2018-05-15T09:44:10.614Z,974.27
2018-05-15T09:45:21.262Z,974.35
2018-05-15T09:46:10.699Z,974.47
2018-05-15T09:47:11.695Z,974.48
2018-05-15T09:48:12.135Z,974.34
2018-05-15T09:49:10.650Z,974.45
2018-05-15T09:50:10.652Z,974.37
2018-05-15T09:52:47.918Z,974.47
2018-05-15T09:53:42.339Z,974.56
2018-05-15T09:54:42.338Z,974.56
2018-05-15T09:56:04.401Z,974.49
2018-05-15T09:56:42.473Z,974.47
2018-05-15T09:57:42.368Z,974.50
2018-05-15T09:58:43.296Z,974.49
2018-05-15T09:59:42.387Z,974.50
2018-05-15T10:00:42.395Z,974.55
2018-05-15T10:02:04.434Z,974.59
2018-05-15T10:02:42.423Z,974.60
2018-05-15T10:03:42.438Z,974.59
2018-05-15T10:04:42.441Z,974.49
2018-05-15T10:05:42.457Z,974.49
2018-05-15T10:06:42.618Z,974.38
2018-05-15T10:07:43.180Z,974.52
2018-05-15T10:08:42.502Z,974.67
2018-05-15T10:09:42.523Z,974.21
2018-05-15T10:10:42.520Z,974.31
2018-05-15T10:11:42.591Z,974.19
2018-05-15T10:12:42.721Z,974.23
2018-05-15T10:13:42.581Z,974.21
2018-05-15T10:14:42.580Z,974.20
2018-05-15T10:15:42.600Z,974.15
2018-05-15T10:16:42.610Z,974.16
2018-05-15T10:17:42.795Z,974.13
2018-05-15T10:18:42.635Z,974.21
2018-05-15T10:19:42.646Z,974.13
2018-05-15T10:20:42.654Z,974.15
2018-05-15T10:21:42.662Z,974.15
2018-05-15T10:22:42.680Z,974.08
2018-05-15T10:24:11.432Z,974.10
2018-05-15T10:24:42.715Z,974.06
2018-05-15T10:25:42.708Z,974.01
2018-05-15T10:26:42.720Z,974.05
2018-05-15T10:27:42.731Z,973.97
2018-05-15T10:28:50.435Z,974.01
2018-05-15T10:29:42.754Z,974.03
2018-05-15T10:30:42.762Z,973.90
2018-05-15T10:31:42.773Z,974.20
2018-05-15T10:32:42.906Z,974.31
2018-05-15T10:33:42.824Z,974.25
2018-05-15T10:34:42.796Z,974.26
2018-05-15T10:35:42.808Z,974.05
2018-05-15T10:36:42.818Z,974.02
2018-05-15T10:37:42.825Z,974.28
2018-05-15T10:38:42.901Z,974.02
2018-05-15T10:39:42.845Z,974.32
2018-05-15T10:40:42.852Z,974.22
2018-05-15T10:41:42.862Z,974.21
2018-05-15T10:42:42.897Z,974.07
2018-05-15T10:43:42.934Z,974.22
2018-05-15T10:44:42.902Z,974.19
2018-05-15T10:45:42.910Z,973.98
2018-05-15T10:46:42.945Z,973.95
2018-05-15T10:47:42.931Z,973.88
2018-05-15T10:48:43.010Z,973.95
2018-05-15T10:49:42.974Z,973.91
2018-05-15T10:50:42.985Z,973.89
2018-05-15T10:51:42.977Z,973.90
2018-05-15T10:52:43.143Z,973.82
2018-05-15T10:53:43.049Z,973.82
2018-05-15T10:54:43.010Z,973.82
2018-05-15T10:55:43.028Z,974.01
2018-05-15T10:56:43.036Z,973.77
2018-05-15T10:57:43.051Z,973.81
2018-05-15T10:58:46.437Z,973.78
2018-05-15T10:59:43.100Z,973.82
2018-05-15T11:00:43.072Z,973.76
2018-05-15T11:01:43.713Z,973.72
2018-05-15T11:02:43.100Z,973.73
2018-05-15T11:03:43.260Z,973.70
2018-05-15T11:04:43.127Z,973.84
2018-05-15T11:05:43.125Z,973.87
2018-05-15T11:06:43.141Z,973.88
2018-05-15T11:07:43.146Z,973.93
2018-05-15T11:08:43.163Z,973.88
2018-05-15T11:09:43.465Z,973.90
2018-05-15T11:10:43.182Z,973.65
2018-05-15T11:11:43.186Z,973.79
2018-05-15T11:12:43.325Z,973.47
2018-05-15T11:13:43.258Z,973.48
2018-05-15T11:14:43.222Z,973.47
2018-05-15T11:15:43.235Z,973.52
2018-05-15T11:16:43.242Z,973.46
2018-05-15T11:17:43.255Z,973.43
2018-05-15T11:18:43.310Z,973.44
2018-05-15T11:19:43.271Z,973.41
2018-05-15T11:20:43.292Z,973.44
2018-05-15T11:21:43.300Z,973.36
2018-05-15T11:22:43.324Z,973.38
2018-05-15T11:23:57.535Z,973.37
2018-05-15T11:24:43.329Z,973.28
2018-05-15T11:25:43.328Z,973.38
2018-05-15T11:26:43.367Z,973.33
2018-05-15T11:27:43.350Z,973.29
2018-05-15T11:28:43.359Z,973.26
2018-05-15T11:29:43.445Z,973.30
2018-05-15T11:30:43.374Z,973.29
2018-05-15T11:31:43.381Z,973.23
2018-05-15T11:32:43.390Z,973.27
2018-05-15T11:33:43.609Z,973.25
2018-05-15T11:34:43.951Z,973.22
2018-05-15T11:35:43.435Z,973.22
2018-05-15T11:36:43.416Z,973.20
2018-05-15T11:37:43.423Z,973.19
2018-05-15T11:38:43.423Z,973.25
2018-05-15T11:39:43.435Z,973.20
2018-05-15T11:40:43.485Z,973.24
2018-05-15T11:41:43.528Z,973.23
2018-05-15T11:42:43.450Z,973.26
2018-05-15T11:43:43.459Z,973.24
2018-05-15T11:44:43.470Z,973.27
2018-05-15T11:45:43.508Z,973.30
2018-05-15T11:46:43.472Z,973.36
2018-05-15T11:47:43.729Z,973.27
2018-05-15T11:48:43.902Z,973.33
2018-05-15T11:49:44.184Z,973.38
2018-05-15T11:50:45.660Z,973.39
2018-05-15T11:51:44.268Z,973.44
2018-05-15T11:52:44.730Z,973.55
2018-05-15T11:53:43.515Z,973.60
2018-05-15T11:54:43.585Z,973.64
2018-05-15T11:55:43.515Z,973.62
2018-05-15T11:56:43.522Z,973.54
2018-05-15T11:57:43.526Z,973.45
2018-05-15T11:58:43.530Z,973.39
2018-05-15T11:59:43.590Z,973.70
2018-05-15T12:00:43.586Z,973.59
2018-05-15T12:01:43.538Z,973.71
2018-05-15T12:02:43.584Z,973.74
2018-05-15T12:03:43.564Z,973.79
2018-05-15T12:04:43.556Z,973.75
2018-05-15T12:06:04.964Z,973.72
2018-05-15T12:06:43.567Z,973.74
2018-05-15T12:07:43.570Z,973.69
2018-05-15T12:08:43.580Z,973.57
2018-05-15T12:09:43.589Z,973.48
2018-05-15T12:10:54.465Z,973.52
2018-05-15T12:11:43.604Z,973.66
2018-05-15T12:12:43.616Z,973.71
2018-05-15T12:13:43.624Z,973.69
2018-05-15T12:14:43.632Z,973.50
2018-05-15T12:15:44.350Z,973.32
2018-05-15T12:16:43.727Z,973.30
2018-05-15T12:17:43.686Z,973.27
2018-05-15T12:18:46.410Z,973.25
2018-05-15T12:19:58.452Z,973.27
2018-05-15T12:21:05.473Z,973.23
2018-05-15T12:21:43.699Z,973.19
2018-05-15T12:22:44.434Z,973.19
2018-05-15T12:23:43.777Z,973.16
2018-05-15T12:24:43.743Z,973.11
2018-05-15T12:25:44.766Z,973.11
2018-05-15T12:26:43.833Z,973.07
2018-05-15T12:27:43.857Z,973.06
2018-05-15T12:28:43.792Z,973.04
2018-05-15T12:29:43.801Z,973.02
2018-05-15T12:30:43.854Z,973.00
2018-05-15T12:32:04.836Z,972.96
2018-05-15T12:32:44.494Z,973.02
2018-05-15T12:33:44.420Z,972.97
2018-05-15T12:34:43.957Z,972.98
2018-05-15T12:35:44.082Z,973.00
2018-05-15T12:36:56.861Z,972.99
2018-05-15T12:37:45.453Z,972.99
2018-05-15T12:38:43.892Z,973.07
2018-05-15T12:39:48.436Z,973.04
2018-05-15T12:40:44.018Z,973.02
2018-05-15T12:41:45.007Z,973.10
2018-05-15T12:42:43.979Z,973.08
2018-05-15T12:43:44.932Z,973.03
2018-05-15T12:45:01.943Z,973.04
2018-05-15T12:45:44.972Z,973.00
2018-05-15T12:46:44.106Z,972.98
2018-05-15T12:47:51.012Z,972.98
2018-05-15T12:48:44.079Z,972.95
2018-05-15T12:49:44.875Z,972.91
2018-05-15T12:50:54.975Z,972.90
2018-05-15T12:51:44.045Z,972.86
2018-05-15T12:52:44.078Z,972.83
2018-05-15T12:53:44.070Z,972.79
2018-05-15T12:54:44.140Z,972.76
2018-05-15T12:55:44.164Z,972.70
2018-05-15T12:56:44.116Z,972.73
2018-05-15T12:57:44.938Z,972.78
2018-05-15T12:58:44.159Z,972.73
2018-05-15T12:59:49.062Z,972.62
2018-05-15T13:00:44.473Z,972.64
2018-05-15T13:02:05.195Z,972.58
2018-05-15T13:02:44.239Z,972.60
2018-05-15T13:03:44.220Z,972.35
2018-05-15T13:04:44.247Z,972.44
2018-05-15T13:05:44.314Z,972.61
2018-05-15T13:06:44.304Z,972.58
2018-05-15T13:07:44.287Z,972.43
2018-05-15T13:08:45.060Z,972.59